Time;durP1;ratioP1;P1;durP2;ratioP2;P2;SDS_P1;SDS_P2;PMS_P1;PMS_P2;Temp;Humidity;BMP_temperature;BMP_pressure;BME280_temperature;BME280_humidity;BME280_pressure;Samples;Min_cycle;Max_cycle;Signal;HPM_P1;HPM_P2
2022/11/10 00:00:34;;;;;;;;;18.75;18.75;;;;;12.31;69.94;101753.69;5032038;27;45328;-68
2022/11/10 00:03:01;;;;;;;;;23.25;21.50;;;;;12.33;69.38;101755.34;5031929;28;45419;-67
2022/11/10 00:05:26;;;;;;;;;23.75;18.75;;;;;11.93;69.72;101702.00;5032500;28;45352;-68
2022/11/10 00:07:52;;;;;;;;;21.25;20.00;;;;;12.31;69.15;101757.25;5075517;27;45365;-67
2022/11/10 00:10:17;;;;;;;;;25.25;21.25;;;;;12.27;69.68;101764.53;5031591;27;45365;-68
2022/11/10 00:12:43;;;;;;;;;18.25;16.75;;;;;12.24;69.70;101763.81;5029204;28;45417;-68
2022/11/10 00:17:54;;;;;;;;;19.75;19.00;;;;;12.24;69.17;101775.41;5031450;28;45334;-67
2022/11/10 00:20:19;;;;;;;;;20.75;19.50;;;;;12.20;69.99;101783.66;5031051;28;45258;-67
2022/11/10 00:22:44;;;;;;;;;19.75;17.00;;;;;12.21;69.53;101780.03;5031576;28;45538;-67
2022/11/10 00:25:11;;;;;;;;;19.25;16.50;;;;;12.03;69.23;101753.25;5031065;27;45481;-67
2022/11/10 00:27:36;;;;;;;;;20.25;17.00;;;;;11.84;69.53;101731.03;5031382;28;45336;-67
2022/11/10 00:30:02;;;;;;;;;15.50;15.25;;;;;12.18;69.56;101782.88;5080106;27;45384;-68
2022/11/10 00:32:28;;;;;;;;;22.50;17.50;;;;;11.84;69.91;101737.22;5031618;28;45289;-67
2022/11/10 00:34:53;;;;;;;;;18.25;15.75;;;;;12.18;69.72;101788.22;5031494;28;45440;-68
2022/11/10 00:37:18;;;;;;;;;14.50;13.25;;;;;12.02;69.93;101761.34;5031488;28;45319;-67
2022/11/10 00:39:44;;;;;;;;;14.75;14.00;;;;;12.11;69.42;101788.50;5032026;28;45425;-67
2022/11/10 00:42:09;;;;;;;;;17.75;15.75;;;;;12.11;69.45;101785.84;5032088;27;45737;-67
2022/11/10 00:44:35;;;;;;;;;17.25;15.00;;;;;12.13;69.53;101796.44;5100163;27;47656;-67
2022/11/10 00:47:00;;;;;;;;;13.00;13.00;;;;;12.13;69.21;101803.63;5031836;28;45371;-68
2022/11/10 00:49:26;;;;;;;;;15.50;15.00;;;;;12.05;69.69;101785.25;5053707;27;45434;-67
2022/11/10 00:51:52;;;;;;;;;13.00;13.00;;;;;11.25;69.47;101659.00;5031411;28;45249;-68
2022/11/10 00:54:18;;;;;;;;;17.00;15.50;;;;;11.97;69.34;101772.28;5030989;27;45790;-67
2022/11/10 00:56:43;;;;;;;;;15.75;15.25;;;;;12.01;69.63;101799.72;5038303;27;45875;-67
2022/11/10 00:59:09;;;;;;;;;5.50;5.50;;;;;12.07;70.08;101807.47;5031614;28;45451;-67
2022/11/10 01:01:34;;;;;;;;;17.50;17.50;;;;;11.99;69.99;101799.81;5030729;28;45523;-68
2022/11/10 01:03:59;;;;;;;;;14.25;12.50;;;;;11.93;70.27;101803.63;5030596;28;46606;-67
2022/11/10 01:06:25;;;;;;;;;21.00;17.75;;;;;11.94;69.84;101802.72;5029825;28;45701;-67
2022/11/10 01:08:51;;;;;;;;;18.75;17.50;;;;;11.65;70.07;101755.06;5030866;28;45348;-68
2022/11/10 01:11:20;;;;;;;;;18.75;17.25;;;;;11.85;70.05;101792.44;5098602;27;45595;-67
2022/11/10 01:13:46;;;;;;;;;17.75;17.75;;;;;11.95;70.54;101808.94;5026114;28;45554;-67
2022/11/10 01:16:20;;;;;;;;;15.00;15.00;;;;;11.96;69.83;101826.72;5032488;28;45332;-67
2022/11/10 01:18:51;;;;;;;;;11.00;10.75;;;;;11.61;70.55;101757.03;5032439;28;45339;-68
2022/11/10 01:21:18;;;;;;;;;19.00;14.25;;;;;11.93;70.19;101818.78;5032314;28;45261;-67
2022/11/10 01:23:44;;;;;;;;;15.00;13.50;;;;;11.91;70.09;101831.38;5032056;28;45562;-67
2022/11/10 01:26:10;;;;;;;;;17.00;16.00;;;;;11.76;70.18;101799.06;5032138;28;45458;-67
2022/11/10 01:28:36;;;;;;;;;16.50;13.50;;;;;11.90;69.77;101832.31;5030547;28;45411;-67
2022/11/10 01:31:04;;;;;;;;;17.50;15.00;;;;;11.77;70.29;101814.19;5031884;28;45316;-67
2022/11/10 01:33:30;;;;;;;;;17.25;17.25;;;;;11.89;70.22;101827.88;5032063;28;46228;-67
2022/11/10 01:35:56;;;;;;;;;15.00;15.00;;;;;11.90;70.12;101829.63;5032360;28;45268;-67
2022/11/10 01:38:22;;;;;;;;;15.25;14.75;;;;;11.91;70.09;101836.72;5032140;28;45308;-67
2022/11/10 01:40:48;;;;;;;;;15.25;14.00;;;;;11.60;69.70;101787.38;5031893;28;45518;-67
2022/11/10 01:43:14;;;;;;;;;17.25;15.25;;;;;9.73;70.08;101478.25;5032255;28;47173;-66
2022/11/10 01:45:51;;;;;;;;;18.75;15.50;;;;;11.84;70.31;101841.50;5032177;28;45414;-66
2022/11/10 01:48:39;;;;;;;;;16.25;15.00;;;;;11.77;70.35;101835.56;5032090;28;45377;-66
2022/11/10 01:51:14;;;;;;;;;21.50;17.25;;;;;11.76;70.48;101854.34;5032077;28;45301;-66
2022/11/10 01:53:43;;;;;;;;;14.50;14.50;;;;;11.74;70.03;101846.41;5013957;28;46815;-67
2022/11/10 01:56:11;;;;;;;;;14.50;13.75;;;;;11.61;70.54;101827.38;5031919;28;45301;-67
2022/11/10 01:58:39;;;;;;;;;17.25;14.25;;;;;11.62;70.50;101841.63;5032024;28;45307;-67
2022/11/10 02:01:07;;;;;;;;;15.25;13.50;;;;;11.47;70.28;101810.25;5031671;28;45566;-67
2022/11/10 02:03:48;;;;;;;;;15.50;14.75;;;;;11.66;70.38;101861.03;5031234;28;45669;-67
2022/11/10 02:06:15;;;;;;;;;17.50;16.25;;;;;11.67;70.52;101874.34;5029686;28;45373;-67
2022/11/10 02:08:42;;;;;;;;;15.50;13.00;;;;;11.66;70.55;101869.94;5031927;28;45273;-68
2022/11/10 02:11:07;;;;;;;;;15.75;14.00;;;;;11.61;70.46;101871.97;5031376;28;45297;-68
2022/11/10 02:13:32;;;;;;;;;15.00;12.75;;;;;11.31;70.88;101819.00;5031554;28;45492;-68
2022/11/10 02:15:58;;;;;;;;;2.25;2.00;;;;;11.56;70.55;101857.94;5031795;28;45304;-68
2022/11/10 02:18:23;;;;;;;;;16.50;15.00;;;;;11.51;70.79;101854.59;5031875;28;45433;-67
2022/11/10 02:20:48;;;;;;;;;16.25;12.00;;;;;11.44;70.42;101846.00;5031873;28;45353;-67
2022/11/10 02:23:29;;;;;;;;;15.25;12.75;;;;;11.60;70.52;101870.22;5030263;27;45602;-67
2022/11/10 02:25:55;;;;;;;;;16.75;12.25;;;;;11.60;70.52;101871.06;5031282;28;45379;-67
2022/11/10 02:28:21;;;;;;;;;16.75;15.75;;;;;11.30;69.96;101819.91;5031729;28;45371;-67
2022/11/10 02:30:47;;;;;;;;;17.00;15.25;;;;;11.57;70.40;101873.03;5031297;28;45744;-67
2022/11/10 02:33:13;;;;;;;;;16.50;15.00;;;;;11.28;70.38;101835.13;5029640;28;46463;-67
2022/11/10 02:35:38;;;;;;;;;15.00;15.00;;;;;11.45;71.11;101878.00;5013247;28;45577;-66
2022/11/10 02:38:04;;;;;;;;;14.75;12.75;;;;;11.44;70.73;101870.94;5031554;28;45367;-67
2022/11/10 02:40:29;;;;;;;;;14.50;11.75;;;;;11.21;70.71;101836.34;5030754;28;45362;-67
2022/11/10 02:42:54;;;;;;;;;15.75;14.00;;;;;11.42;70.99;101866.59;5013207;28;46798;-68
2022/11/10 02:45:20;;;;;;;;;15.75;12.75;;;;;11.42;70.43;101875.47;5031128;28;45475;-68
2022/11/10 02:47:45;;;;;;;;;20.00;16.25;;;;;11.42;71.00;101875.47;5031273;28;45575;-67
2022/11/10 02:50:10;;;;;;;;;11.50;11.50;;;;;11.42;70.46;101877.28;5031453;27;45363;-67
2022/11/10 02:52:36;;;;;;;;;17.75;13.50;;;;;11.35;70.57;101866.00;5030582;28;47456;-68
2022/11/10 02:55:01;;;;;;;;;15.75;13.50;;;;;11.43;70.49;101879.00;5030947;27;45425;-67
2022/11/10 02:57:26;;;;;;;;;17.25;14.75;;;;;11.37;70.91;101864.09;5012921;28;45440;-67
2022/11/10 02:59:52;;;;;;;;;14.50;14.50;;;;;11.38;70.35;101863.19;5030773;28;45438;-68
2022/11/10 03:02:17;;;;;;;;;9.75;9.75;;;;;11.40;70.78;101880.03;5030602;28;45503;-67
2022/11/10 03:04:43;;;;;;;;;15.25;12.75;;;;;11.42;70.73;101883.47;5012806;28;45538;-67
2022/11/10 03:07:08;;;;;;;;;17.00;15.25;;;;;11.14;70.55;101835.75;5030924;28;45664;-67
2022/11/10 03:09:34;;;;;;;;;18.75;15.50;;;;;11.39;70.35;101883.63;5029452;27;45434;-67
2022/11/10 03:11:59;;;;;;;;;17.00;16.75;;;;;11.12;70.64;101837.66;5030786;28;45435;-67
2022/11/10 03:14:24;;;;;;;;;10.75;10.75;;;;;11.26;70.74;101864.59;5030763;28;45522;-68
2022/11/10 03:16:50;;;;;;;;;15.00;14.25;;;;;11.34;70.70;101876.75;5031651;28;45354;-67
2022/11/10 03:19:15;;;;;;;;;15.00;15.00;;;;;11.37;70.87;101890.81;5034121;28;45422;-67
2022/11/10 03:21:40;;;;;;;;;14.50;13.00;;;;;11.38;71.08;101886.38;5033707;27;46089;-67
2022/11/10 03:24:06;;;;;;;;;10.25;10.25;;;;;11.28;71.05;101865.41;5032181;28;45842;-68
2022/11/10 03:26:31;;;;;;;;;15.75;14.25;;;;;11.33;71.07;101889.22;5033655;28;45290;-67
2022/11/10 03:28:56;;;;;;;;;9.25;9.25;;;;;11.25;71.41;101880.69;5033646;28;45336;-66
2022/11/10 03:31:22;;;;;;;;;10.50;10.00;;;;;11.31;70.92;101888.44;5033235;28;45566;-67
2022/11/10 03:33:47;;;;;;;;;10.50;8.25;;;;;11.21;70.94;101871.06;5033394;28;45490;-68
2022/11/10 03:36:12;;;;;;;;;14.25;14.00;;;;;11.28;71.00;101891.22;5016254;28;45341;-67
2022/11/10 03:38:38;;;;;;;;;11.75;10.00;;;;;11.28;71.13;101893.91;5034145;28;45411;-67
2022/11/10 03:41:03;;;;;;;;;9.25;8.75;;;;;11.28;70.76;101896.56;5033723;28;45394;-67
2022/11/10 03:43:28;;;;;;;;;8.75;8.75;;;;;11.28;71.37;101893.91;5033510;28;45453;-66
2022/11/10 03:45:54;;;;;;;;;12.25;10.25;;;;;11.25;70.69;101891.38;5033409;28;45446;-67
2022/11/10 03:48:19;;;;;;;;;13.75;12.25;;;;;10.99;70.75;101847.97;5033544;28;45394;-67
2022/11/10 03:50:44;;;;;;;;;10.75;10.00;;;;;11.18;71.08;101888.09;5033359;28;45390;-67
2022/11/10 03:53:10;;;;;;;;;14.00;12.00;;;;;11.24;70.62;101895.84;5052173;28;45387;-67
2022/11/10 03:55:35;;;;;;;;;12.00;11.50;;;;;11.00;70.58;101860.41;5053648;27;45365;-67
2022/11/10 03:58:02;;;;;;;;;9.75;9.50;;;;;11.21;70.89;101906.66;5052451;28;45594;-68
2022/11/10 04:00:28;;;;;;;;;9.25;8.25;;;;;11.16;71.02;101898.00;5053166;27;45419;-68
2022/11/10 04:02:54;;;;;;;;;11.25;10.00;;;;;10.96;71.24;101861.47;5052257;28;45460;-68
2022/11/10 04:10:56;;;;;;;;;7.75;7.25;;;;;11.19;71.55;101911.22;5053743;28;45428;-68
2022/11/10 04:16:06;;;;;;;;;8.00;7.50;;;;;11.05;71.50;101879.78;5033546;28;45445;-68
2022/11/10 04:18:31;;;;;;;;;6.50;6.25;;;;;11.23;71.15;101912.81;5015282;28;45352;-68
2022/11/10 04:20:59;;;;;;;;;7.25;7.25;;;;;11.22;71.54;101924.41;5033308;28;45884;-68
2022/11/10 04:23:29;;;;;;;;;6.75;6.25;;;;;11.23;71.92;101927.97;5033320;28;45400;-68
2022/11/10 04:28:53;;;;;;;;;8.75;7.75;;;;;10.97;71.81;101884.53;5032249;28;45277;-67
2022/11/10 04:31:20;;;;;;;;;8.50;8.00;;;;;11.17;71.97;101936.25;5031959;28;45496;-67
2022/11/10 04:33:46;;;;;;;;;9.50;7.50;;;;;11.02;72.09;101917.25;5038205;28;45678;-66
2022/11/10 04:36:14;;;;;;;;;5.50;5.50;;;;;11.10;71.83;101930.28;5053077;28;45295;-67
2022/11/10 04:38:39;;;;;;;;;8.00;5.00;;;;;11.10;71.51;101941.84;5052733;28;45435;-67
2022/11/10 04:41:05;;;;;;;;;5.75;4.75;;;;;11.03;71.57;101927.00;5052793;28;45537;-66
2022/11/10 04:43:31;;;;;;;;;8.25;4.75;;;;;11.05;71.21;101927.84;5053193;28;45409;-66
2022/11/10 04:45:58;;;;;;;;;9.00;8.00;;;;;11.05;71.59;101938.50;5054217;28;45300;-67
2022/11/10 04:48:25;;;;;;;;;9.00;6.50;;;;;11.09;71.46;101948.13;5054043;27;45408;-67
2022/11/10 04:50:50;;;;;;;;;3.00;3.00;;;;;11.06;71.60;101947.38;5054055;28;46287;-66
2022/11/10 04:53:16;;;;;;;;;4.00;4.00;;;;;11.07;71.45;101947.31;5053872;28;45226;-66
2022/11/10 04:55:43;;;;;;;;;7.75;7.75;;;;;11.08;71.19;101951.72;5054071;28;45462;-66
2022/11/10 04:58:09;;;;;;;;;7.50;7.00;;;;;11.08;71.00;101958.84;5053437;28;45284;-67
2022/11/10 05:00:35;;;;;;;;;8.50;6.50;;;;;10.81;71.00;101920.84;5052507;28;45471;-66
2022/11/10 05:03:03;;;;;;;;;7.50;6.50;;;;;11.05;70.84;101967.88;5052698;27;45326;-66
2022/11/10 05:05:29;;;;;;;;;7.25;5.25;;;;;11.05;70.72;101967.88;5053322;28;45448;-66
2022/11/10 05:07:55;;;;;;;;;9.00;8.00;;;;;10.90;71.03;101956.00;5052805;28;45526;-67
2022/11/10 05:10:20;;;;;;;;;7.75;5.00;;;;;10.99;71.22;101970.81;5052791;28;45489;-66
2022/11/10 05:12:45;;;;;;;;;8.00;8.00;;;;;10.95;70.68;101971.84;5046793;28;45342;-66
2022/11/10 05:15:11;;;;;;;;;10.50;9.00;;;;;10.68;70.90;101934.69;5032623;28;45466;-66
2022/11/10 05:17:36;;;;;;;;;10.50;8.00;;;;;10.92;71.03;101991.53;5033047;28;45486;-66
2022/11/10 05:20:02;;;;;;;;;9.25;8.00;;;;;10.80;71.15;101980.47;5031546;27;47275;-67
2022/11/10 05:22:28;;;;;;;;;7.25;7.25;;;;;10.72;70.68;101981.66;5032779;28;45348;-67
2022/11/10 05:24:53;;;;;;;;;9.25;8.25;;;;;10.69;70.98;101973.78;5032398;28;45334;-66
2022/11/10 05:27:19;;;;;;;;;9.50;9.50;;;;;10.60;71.18;101964.34;5032497;27;45593;-67
2022/11/10 05:29:44;;;;;;;;;13.50;13.50;;;;;10.61;71.40;101965.22;5013725;28;45667;-67
2022/11/10 05:32:09;;;;;;;;;9.75;9.75;;;;;10.87;70.82;102009.53;5031925;28;45505;-67
2022/11/10 05:34:35;;;;;;;;;14.75;14.75;;;;;10.87;70.58;102008.69;5031981;28;45676;-67
2022/11/10 05:37:00;;;;;;;;;15.50;15.50;;;;;10.86;70.46;102017.63;5032036;27;45302;-67
2022/11/10 05:39:25;;;;;;;;;12.50;12.50;;;;;10.81;71.07;102022.25;5031534;28;47153;-67
2022/11/10 05:41:51;;;;;;;;;19.50;17.00;;;;;10.82;71.75;102010.66;5031401;28;45469;-67
2022/11/10 05:44:16;;;;;;;;;16.50;14.50;;;;;10.86;70.86;102020.28;5030710;28;45750;-67
2022/11/10 05:46:41;;;;;;;;;14.25;13.75;;;;;10.63;70.83;101998.03;5032179;28;45447;-67
2022/11/10 05:49:07;;;;;;;;;13.25;11.25;;;;;10.81;71.36;102024.94;5031798;27;46655;-67
2022/11/10 05:51:33;;;;;;;;;14.25;14.25;;;;;10.82;71.14;102018.69;5031695;28;45298;-67
2022/11/10 05:53:58;;;;;;;;;19.00;15.25;;;;;10.68;71.13;102014.75;5032461;28;45348;-67
2022/11/10 05:56:23;;;;;;;;;17.25;17.25;;;;;10.75;71.46;102031.41;5031507;28;45349;-67
2022/11/10 05:58:49;;;;;;;;;14.00;13.25;;;;;10.51;71.31;101986.06;5031491;28;46625;-68
2022/11/10 06:01:14;;;;;;;;;17.75;15.25;;;;;10.76;71.13;102026.00;5031720;28;45395;-67
2022/11/10 06:03:40;;;;;;;;;18.00;18.00;;;;;10.52;71.73;101992.28;5031441;28;45244;-68
2022/11/10 06:06:05;;;;;;;;;17.50;15.50;;;;;10.60;71.64;102016.84;5030682;28;45612;-68
2022/11/10 06:08:30;;;;;;;;;21.50;18.00;;;;;10.43;71.22;101997.03;5041450;27;45339;-68
2022/11/10 06:10:56;;;;;;;;;19.75;18.75;;;;;10.52;71.40;102010.94;5051311;27;45253;-68
2022/11/10 06:13:21;;;;;;;;;23.50;18.75;;;;;10.56;71.41;102024.09;5038766;28;45381;-68
2022/11/10 06:15:47;;;;;;;;;17.00;16.25;;;;;10.68;71.61;102035.25;5031630;28;45286;-68
2022/11/10 06:18:12;;;;;;;;;16.75;16.25;;;;;10.68;71.04;102036.09;5031421;28;46254;-67
2022/11/10 06:20:37;;;;;;;;;15.50;14.25;;;;;10.66;71.51;102031.75;5031470;27;45235;-67
2022/11/10 06:23:11;;;;;;;;;15.75;14.50;;;;;10.65;71.15;102028.22;5013551;27;45380;-68
2022/11/10 06:25:38;;;;;;;;;15.25;13.25;;;;;10.66;71.99;102034.41;5031148;28;45423;-69
2022/11/10 06:28:04;;;;;;;;;11.50;11.50;;;;;10.56;72.06;102021.44;5029889;28;48262;-67
2022/11/10 06:30:31;;;;;;;;;14.75;12.75;;;;;10.65;71.93;102036.22;5030998;28;45711;-68
2022/11/10 06:32:56;;;;;;;;;11.00;10.00;;;;;10.62;72.28;102033.66;5030512;28;45350;-69
2022/11/10 06:35:22;;;;;;;;;11.00;10.75;;;;;10.67;71.93;102045.03;5013524;27;45302;-69
2022/11/10 06:38:04;;;;;;;;;13.75;11.50;;;;;10.68;71.67;102048.59;5030784;28;45787;-69
2022/11/10 06:40:30;;;;;;;;;12.00;11.00;;;;;10.69;72.59;102051.19;5030898;28;45354;-69
2022/11/10 06:42:56;;;;;;;;;15.00;13.25;;;;;10.69;72.82;102058.31;5030609;28;45448;-68
2022/11/10 06:45:22;;;;;;;;;14.00;11.25;;;;;10.67;72.93;102065.53;5012132;28;45404;-68
2022/11/10 06:47:48;;;;;;;;;10.50;10.50;;;;;10.65;72.85;102065.59;5030493;28;46747;-68
2022/11/10 06:50:13;;;;;;;;;9.00;9.00;;;;;10.65;72.58;102070.91;5030855;28;45454;-68
2022/11/10 06:52:39;;;;;;;;;14.75;13.00;;;;;9.97;72.17;101972.06;5033012;28;45399;-68
2022/11/10 06:55:05;;;;;;;;;10.75;10.50;;;;;10.63;72.34;102079.91;5033946;28;45284;-68
2022/11/10 06:57:36;;;;;;;;;9.50;9.50;;;;;10.54;72.50;102070.44;5033791;28;45296;-68
2022/11/10 07:00:02;;;;;;;;;9.00;8.00;;;;;10.70;72.77;102100.09;5033797;28;45409;-68
2022/11/10 07:02:28;;;;;;;;;10.00;9.00;;;;;10.68;72.03;102094.81;5033650;27;45361;-68
2022/11/10 07:04:53;;;;;;;;;13.00;9.00;;;;;10.62;71.77;102100.38;5033815;28;45362;-69
2022/11/10 07:07:18;;;;;;;;;15.00;14.25;;;;;10.64;72.44;102097.66;5033481;28;45615;-68
2022/11/10 07:09:44;;;;;;;;;16.25;14.00;;;;;10.23;72.53;102036.88;5033763;28;45408;-68
2022/11/10 07:12:09;;;;;;;;;10.00;10.00;;;;;10.64;72.36;102101.19;5034136;28;45272;-68
2022/11/10 07:14:34;;;;;;;;;9.50;9.50;;;;;10.69;72.68;102115.25;5033662;28;45371;-68
2022/11/10 07:17:00;;;;;;;;;9.00;8.00;;;;;10.59;72.45;102100.50;5015545;28;45584;-68
2022/11/10 07:19:25;;;;;;;;;12.00;10.50;;;;;10.72;72.95;102128.47;5033671;28;45411;-67
2022/11/10 07:21:50;;;;;;;;;13.50;11.25;;;;;10.74;73.03;102118.63;5033694;28;45454;-68
2022/11/10 07:24:16;;;;;;;;;12.25;11.00;;;;;10.48;73.29;102087.56;5032189;28;45358;-68
2022/11/10 07:26:41;;;;;;;;;13.00;10.50;;;;;10.81;72.91;102129.03;5033346;28;45960;-68
2022/11/10 07:29:06;;;;;;;;;12.75;10.50;;;;;10.74;72.54;102115.94;5033770;27;45430;-69
2022/11/10 07:31:32;;;;;;;;;10.00;8.75;;;;;10.80;73.73;102120.16;5015458;27;45385;-69
2022/11/10 07:33:57;;;;;;;;;14.00;14.00;;;;;10.85;73.96;102128.00;5033434;28;45470;-68
2022/11/10 07:36:23;;;;;;;;;12.00;10.50;;;;;11.00;74.65;102148.78;5032948;28;46639;-68
2022/11/10 07:38:48;;;;;;;;;9.50;9.25;;;;;11.07;74.65;102155.59;5033558;28;45395;-69
2022/11/10 07:41:13;;;;;;;;;13.75;11.50;;;;;11.09;75.26;102148.41;5033631;28;45378;-68
2022/11/10 07:43:39;;;;;;;;;11.00;11.00;;;;;11.17;75.21;102152.59;5032198;28;45528;-68
2022/11/10 07:46:04;;;;;;;;;12.25;9.50;;;;;11.26;75.37;102160.22;5032830;28;46181;-68
2022/11/10 07:48:29;;;;;;;;;10.00;8.00;;;;;11.31;75.43;102174.28;5033350;28;45301;-68
2022/11/10 07:50:55;;;;;;;;;10.00;9.00;;;;;11.24;74.91;102154.06;5033037;28;45326;-69
2022/11/10 07:53:20;;;;;;;;;10.00;9.25;;;;;11.39;74.56;102180.19;5032720;28;45404;-68
2022/11/10 07:55:46;;;;;;;;;9.25;8.00;;;;;11.38;74.72;102173.09;5033258;27;46154;-68
2022/11/10 07:58:14;;;;;;;;;9.50;9.50;;;;;11.48;74.34;102196.78;5033729;28;45460;-69
2022/11/10 08:00:40;;;;;;;;;10.25;10.25;;;;;11.50;74.50;102203.81;5033002;28;45274;-68
2022/11/10 08:03:11;;;;;;;;;11.00;9.75;;;;;11.56;74.30;102208.88;5031604;28;45477;-68
2022/11/10 08:05:36;;;;;;;;;9.75;8.75;;;;;11.51;74.73;102207.34;5032911;28;46499;-68
2022/11/10 08:08:02;;;;;;;;;7.25;7.25;;;;;11.63;74.60;102214.00;5033000;27;45376;-69
2022/11/10 08:10:29;;;;;;;;;13.50;9.25;;;;;11.68;74.72;102220.91;5033339;28;45505;-68
2022/11/10 08:12:56;;;;;;;;;10.75;8.50;;;;;11.74;74.69;102223.34;5032787;28;45343;-68
2022/11/10 08:15:22;;;;;;;;;14.75;12.25;;;;;11.70;74.45;102203.00;5032899;28;45406;-67
2022/11/10 08:17:48;;;;;;;;;12.00;10.75;;;;;11.69;74.67;102206.59;5032853;28;45410;-68
2022/11/10 08:20:13;;;;;;;;;12.00;10.25;;;;;11.71;74.34;102175.31;5032756;27;45351;-68
2022/11/10 08:22:39;;;;;;;;;12.25;11.75;;;;;11.94;74.49;102206.50;5032446;28;45329;-68
2022/11/10 08:25:04;;;;;;;;;15.00;11.00;;;;;12.14;74.69;102236.88;5014863;28;46272;-67
2022/11/10 08:27:29;;;;;;;;;11.50;10.25;;;;;12.21;74.85;102237.50;5032763;28;45368;-67
2022/11/10 08:29:55;;;;;;;;;12.00;10.25;;;;;12.02;75.16;102187.44;5032729;28;45537;-67
2022/11/10 08:32:20;;;;;;;;;9.25;8.75;;;;;12.39;75.25;102233.13;5032578;28;46836;-68
2022/11/10 08:34:46;;;;;;;;;6.00;6.00;;;;;12.53;75.53;102240.59;5032349;28;45601;-68
2022/11/10 08:37:11;;;;;;;;;8.75;8.25;;;;;12.59;75.42;102238.50;5032676;28;45300;-67
2022/11/10 08:39:36;;;;;;;;;9.75;6.75;;;;;12.75;75.55;102243.19;5032740;28;45664;-68
2022/11/10 08:42:02;;;;;;;;;7.00;7.00;;;;;12.84;75.69;102244.59;5032738;27;45394;-68
2022/11/10 08:44:27;;;;;;;;;9.25;7.25;;;;;12.69;75.89;102203.31;5030964;28;47133;-68
2022/11/10 08:46:52;;;;;;;;;5.75;5.75;;;;;12.95;75.60;102237.78;5032707;28;45621;-68
2022/11/10 08:49:18;;;;;;;;;4.75;3.75;;;;;13.12;75.45;102254.91;5032419;28;45413;-68
2022/11/10 08:51:43;;;;;;;;;3.75;3.75;;;;;13.18;75.32;102259.97;5031896;28;45596;-68
2022/11/10 08:54:09;;;;;;;;;4.75;3.25;;;;;13.07;75.39;102228.31;5030370;28;46959;-68
2022/11/10 08:56:34;;;;;;;;;3.25;3.00;;;;;13.31;75.19;102254.94;5014749;27;45343;-68
2022/11/10 08:58:59;;;;;;;;;3.75;3.75;;;;;13.18;74.95;102229.63;5032185;28;45375;-68
2022/11/10 09:01:25;;;;;;;;;6.50;6.50;;;;;12.74;75.00;102148.59;5032530;28;45298;-69
2022/11/10 09:03:50;;;;;;;;;5.00;5.00;;;;;13.30;74.81;102216.50;5031970;28;45359;-68
2022/11/10 09:06:15;;;;;;;;;7.25;5.25;;;;;13.70;74.92;102271.88;5014736;27;45356;-68
2022/11/10 09:08:40;;;;;;;;;5.25;4.75;;;;;13.58;73.82;102242.03;5014515;28;45437;-68
2022/11/10 09:11:06;;;;;;;;;6.25;6.00;;;;;13.89;74.17;102277.25;5032384;28;45296;-68
2022/11/10 09:13:31;;;;;;;;;7.00;5.00;;;;;14.03;73.75;102284.59;5032069;28;46476;-68
2022/11/10 09:16:04;;;;;;;;;10.00;7.00;;;;;14.10;73.59;102281.56;5031821;28;45305;-67
2022/11/10 09:18:30;;;;;;;;;6.50;6.50;;;;;14.10;73.00;102276.19;5032413;28;45436;-67
2022/11/10 09:20:56;;;;;;;;;8.50;8.50;;;;;14.26;73.31;102291.50;5032438;28;45401;-67
2022/11/10 09:23:23;;;;;;;;;5.25;5.25;;;;;14.29;72.83;102291.34;5031411;28;46657;-69
2022/11/10 09:25:51;;;;;;;;;5.50;5.50;;;;;14.39;72.57;102292.63;5031684;28;45381;-68
2022/11/10 09:28:17;;;;;;;;;5.00;4.75;;;;;14.40;72.29;102283.63;5032433;28;45395;-68
2022/11/10 09:30:48;;;;;;;;;6.00;6.00;;;;;14.52;72.75;102283.94;5032210;28;45644;-67
2022/11/10 09:33:14;;;;;;;;;1.00;1.00;;;;;14.47;71.45;102286.88;5031676;28;45544;-68
2022/11/10 09:35:41;;;;;;;;;6.00;3.25;;;;;14.45;72.66;102278.91;5031852;28;45406;-67
2022/11/10 09:38:07;;;;;;;;;4.00;3.00;;;;;14.53;72.29;102288.38;5032210;28;45364;-67
2022/11/10 09:40:54;;;;;;;;;3.50;3.50;;;;;14.63;72.06;102289.66;5030786;28;45538;-67
2022/11/10 09:43:51;;;;;;;;;5.25;5.25;;;;;14.67;72.42;102272.44;5032165;28;45410;-67
2022/11/10 09:46:25;;;;;;;;;1.00;1.00;;;;;14.93;71.69;102291.69;5031548;28;45382;-68
2022/11/10 09:49:12;;;;;;;;;4.00;3.75;;;;;14.94;71.45;102285.34;5032147;28;45368;-67
2022/11/10 09:51:41;;;;;;;;;5.00;2.50;;;;;15.36;71.35;102283.09;5031870;28;45329;-67
2022/11/10 09:54:22;;;;;;;;;3.75;3.75;;;;;16.28;68.59;102293.19;5031369;28;45396;-68
2022/11/10 09:56:49;;;;;;;;;3.25;3.25;;;;;16.90;66.54;102289.50;5031417;28;45359;-68
2022/11/10 09:59:22;;;;;;;;;4.50;3.00;;;;;17.26;64.83;102293.53;5031925;28;45336;-68
2022/11/10 10:02:00;;;;;;;;;3.00;3.00;;;;;17.44;63.53;102284.28;5031437;28;45328;-67
2022/11/10 10:04:39;;;;;;;;;3.00;3.00;;;;;17.71;62.54;102298.78;5031448;28;47300;-69
2022/11/10 10:07:16;;;;;;;;;6.25;5.00;;;;;18.00;62.85;102305.00;5031310;28;45376;-67
2022/11/10 10:09:42;;;;;;;;;4.00;3.00;;;;;18.18;60.98;102315.53;5013692;28;45298;-68
2022/11/10 10:12:24;;;;;;;;;3.00;2.33;;;;;18.30;62.07;102309.31;5031829;28;45372;-68
2022/11/10 10:15:13;;;;;;;;;4.75;3.75;;;;;18.02;61.47;102256.28;5031087;28;46213;-67
2022/11/10 10:18:08;;;;;;;;;4.67;4.00;;;;;18.36;61.63;102329.66;5031248;28;45365;-67
2022/11/10 10:20:56;;;;;;;;;3.67;2.67;;;;;18.39;61.43;102324.06;5031391;28;45421;-67
2022/11/10 10:23:33;;;;;;;;;4.00;4.00;;;;;18.24;60.71;102296.25;5013348;28;45357;-67
2022/11/10 10:25:59;;;;;;;;;5.25;2.50;;;;;18.35;60.59;102327.94;5011633;28;48347;-68
2022/11/10 10:28:34;;;;;;;;;5.33;3.67;;;;;18.29;60.58;102329.22;5031273;28;45579;-67
2022/11/10 10:31:24;;;;;;;;;2.00;2.00;;;;;18.39;61.42;102342.97;5031400;28;45302;-67
2022/11/10 10:33:50;;;;;;;;;3.00;3.00;;;;;18.32;60.11;102345.22;5031305;28;45554;-67
2022/11/10 10:36:23;;;;;;;;;2.00;2.00;;;;;18.35;59.95;102363.91;5031095;27;45748;-67
2022/11/10 10:39:00;;;;;;;;;6.75;4.75;;;;;18.12;60.76;102325.78;5029640;28;45383;-68
2022/11/10 10:41:28;;;;;;;;;5.00;3.00;;;;;18.33;59.75;102363.16;5013934;28;45361;-68
2022/11/10 10:43:57;;;;;;;;;1.33;0.33;;;;;18.29;59.94;102362.47;5031126;28;45571;-67
2022/11/10 10:46:27;;;;;;;;;3.00;1.33;;;;;18.29;59.83;102361.63;5012608;28;48227;-68
2022/11/10 10:49:35;;;;;;;;;2.50;2.50;;;;;18.27;61.12;102358.16;5013449;28;45531;-67
2022/11/10 10:52:04;;;;;;;;;3.67;3.33;;;;;18.29;60.88;102357.09;5051139;28;45604;-67
2022/11/10 10:54:32;;;;;;;;;1.00;1.00;;;;;18.30;60.67;102347.13;5051498;28;45426;-66
2022/11/10 10:57:17;;;;;;;;;5.25;4.25;;;;;18.37;61.49;102348.47;5051149;28;45822;-67
2022/11/10 10:59:43;;;;;;;;;6.75;5.00;;;;;18.46;59.26;102355.97;5051333;28;45467;-67
2022/11/10 11:02:30;;;;;;;;;2.33;2.33;;;;;18.42;59.45;102349.03;5051237;28;45588;-66
2022/11/10 11:05:18;;;;;;;;;3.00;3.00;;;;;18.52;59.92;102351.97;5051291;28;45688;-67
2022/11/10 11:08:01;;;;;;;;;2.00;2.00;;;;;18.67;59.88;102350.91;5051051;28;46266;-68
2022/11/10 11:10:29;;;;;;;;;4.33;3.00;;;;;18.78;59.85;102342.06;5050847;28;45428;-66
2022/11/10 11:13:10;;;;;;;;;3.33;2.33;;;;;18.88;58.11;102330.63;5051258;28;45449;-67
2022/11/10 11:15:36;;;;;;;;;2.33;0.33;;;;;18.81;58.25;102325.66;5051145;28;45535;-68
2022/11/10 11:18:10;;;;;;;;;3.25;2.25;;;;;18.93;57.97;102339.31;5051159;28;46185;-67
2022/11/10 11:20:42;;;;;;;;;3.33;2.00;;;;;19.02;57.06;102333.25;5051059;28;45394;-68
2022/11/10 11:23:29;;;;;;;;;4.00;3.00;;;;;18.99;57.92;102334.34;5024031;28;45411;-68
2022/11/10 11:26:01;;;;;;;;;3.00;1.00;;;;;19.02;57.47;102317.03;5010651;28;45454;-67
2022/11/10 11:28:56;;;;;;;;;2.33;1.00;;;;;19.20;57.60;102335.66;5010183;28;46355;-67
2022/11/10 11:31:27;;;;;;;;;2.33;2.33;;;;;19.35;57.79;102328.28;5010556;28;45382;-68
2022/11/10 11:34:11;;;;;;;;;2.00;2.00;;;;;19.38;57.81;102341.56;5010537;28;45498;-66